createdAt,value
2018-04-30T00:04:22.295Z,99077
2018-04-30T00:09:25.397Z,99076
2018-04-30T00:14:28.452Z,99078
2018-04-30T00:19:33.040Z,99071
2018-04-30T00:24:36.510Z,99079
2018-04-30T00:29:41.116Z,99154
2018-04-30T00:34:44.193Z,99102
2018-04-30T00:39:49.331Z,99052
2018-04-30T00:44:53.164Z,99076
2018-04-30T00:49:57.011Z,99067
2018-04-30T00:55:01.433Z,99082
2018-04-30T01:00:04.917Z,99108
2018-04-30T01:05:08.402Z,99094
2018-04-30T01:10:12.257Z,99083
2018-04-30T01:15:16.117Z,99092
2018-04-30T01:20:19.977Z,99089
2018-04-30T01:25:23.822Z,99079
2018-04-30T01:30:27.702Z,99084
2018-04-30T01:35:31.196Z,99075
2018-04-30T01:40:35.054Z,99086
2018-04-30T01:45:38.154Z,99082
2018-04-30T01:50:42.387Z,99083
2018-04-30T01:55:45.471Z,99089
2018-04-30T02:00:48.566Z,99086
2018-04-30T02:05:52.443Z,99080
2018-04-30T02:10:55.530Z,99069
2018-04-30T02:15:59.961Z,99065
2018-04-30T02:21:04.195Z,99075
2018-04-30T02:26:08.624Z,99055
2018-04-30T02:31:11.709Z,99069
2018-04-30T02:36:16.297Z,99072
2018-04-30T02:41:19.402Z,99071
2018-04-30T02:46:22.491Z,99068
2018-04-30T02:51:26.712Z,99075
2018-04-30T02:56:30.938Z,99077
2018-04-30T03:01:34.044Z,99085
2018-04-30T03:06:37.526Z,99075
2018-04-30T03:11:41.044Z,99095
2018-04-30T03:16:44.654Z,99088
2018-04-30T03:21:48.124Z,99089
2018-04-30T03:26:51.235Z,99096
2018-04-30T03:31:54.316Z,99114
2018-04-30T03:36:57.791Z,99131
2018-04-30T03:42:00.902Z,99141
2018-04-30T03:47:03.986Z,99142
2018-04-30T03:52:07.885Z,99135
2018-04-30T03:57:10.972Z,99149
2018-04-30T04:02:31.970Z,99157
2018-04-30T04:07:35.058Z,99164
2018-04-30T04:12:38.954Z,99170
2018-04-30T04:17:41.987Z,99162
2018-04-30T04:22:45.092Z,99161
2018-04-30T04:27:49.522Z,99175
2018-04-30T04:32:52.609Z,99182
2018-04-30T04:37:55.693Z,99185
2018-04-30T04:42:58.792Z,99178
2018-04-30T04:48:01.894Z,99178
2018-04-30T04:53:04.999Z,99174
2018-04-30T04:58:09.015Z,99186
2018-04-30T05:03:13.750Z,99193
2018-04-30T05:08:17.648Z,99203
2018-04-30T05:13:20.726Z,99209
2018-04-30T05:18:25.161Z,99216
2018-04-30T05:23:28.276Z,99224
2018-04-30T05:28:31.356Z,99220
2018-04-30T05:33:34.451Z,99221
2018-04-30T05:38:39.031Z,99235
2018-04-30T05:43:42.114Z,99254
2018-04-30T05:48:46.585Z,99271
2018-04-30T05:53:49.659Z,99289
2018-04-30T05:58:54.702Z,99284
2018-04-30T06:03:58.185Z,99289
2018-04-30T06:09:01.286Z,99294
2018-04-30T06:14:06.103Z,99300
2018-04-30T06:19:09.959Z,99309
2018-04-30T06:24:14.164Z,99308
2018-04-30T06:29:17.258Z,99315
2018-04-30T06:34:21.700Z,99314
2018-04-30T06:39:26.305Z,99329
2018-04-30T06:44:29.374Z,99330
2018-04-30T06:49:33.222Z,99344
2018-04-30T06:54:36.305Z,99358
2018-04-30T06:59:40.150Z,99364
2018-04-30T07:04:44.353Z,99369
2018-04-30T07:09:47.821Z,99362
2018-04-30T07:14:51.336Z,99345
2018-04-30T07:19:54.811Z,99356
2018-04-30T07:24:58.167Z,99336
2018-04-30T07:30:02.018Z,99337
2018-04-30T07:35:05.495Z,99338
2018-04-30T07:40:09.727Z,99353
2018-04-30T07:45:12.806Z,99366
2018-04-30T07:50:15.899Z,99370
2018-04-30T07:55:19.617Z,99346
2018-04-30T08:00:23.457Z,99351
2018-04-30T08:05:26.563Z,99366
2018-04-30T08:10:30.039Z,99377
2018-04-30T08:15:34.646Z,99372
2018-04-30T08:20:37.733Z,99383
2018-04-30T08:25:41.569Z,99392
2018-04-30T08:30:45.435Z,99390
2018-04-30T08:35:48.899Z,99406
2018-04-30T08:40:52.383Z,99419
2018-04-30T08:45:55.875Z,99427
2018-04-30T08:50:59.734Z,99430
2018-04-30T08:56:03.656Z,99441
2018-04-30T09:01:06.683Z,99432
2018-04-30T09:06:09.786Z,99428
2018-04-30T09:11:13.635Z,99432
2018-04-30T09:16:16.746Z,99433
2018-04-30T09:21:19.882Z,99435
2018-04-30T09:26:24.125Z,99438
2018-04-30T09:31:28.334Z,99447
2018-04-30T09:36:32.591Z,99449
2018-04-30T09:41:36.107Z,99475
2018-04-30T09:46:39.588Z,99470
2018-04-30T09:51:43.070Z,99472
2018-04-30T09:56:47.516Z,99470
2018-04-30T10:01:50.986Z,99450
2018-04-30T10:06:54.837Z,99450
2018-04-30T10:11:58.427Z,99454
2018-04-30T10:17:02.294Z,99455
2018-04-30T10:22:05.393Z,99462
2018-04-30T10:27:08.892Z,99452
2018-04-30T10:32:13.338Z,99450
2018-04-30T10:37:17.185Z,99451
2018-04-30T10:42:22.002Z,99456
2018-04-30T10:47:25.092Z,99453
2018-04-30T10:52:28.421Z,99455
2018-04-30T10:57:32.839Z,99463
2018-04-30T11:02:35.976Z,99466
2018-04-30T11:07:39.053Z,99463
2018-04-30T11:12:42.148Z,99463
2018-04-30T11:17:45.632Z,99461
2018-04-30T11:22:49.737Z,99462
2018-04-30T11:27:54.156Z,99456
2018-04-30T11:32:58.630Z,99460
2018-04-30T11:38:01.727Z,99461
2018-04-30T11:43:05.209Z,99467
2018-04-30T11:48:09.062Z,99466
2018-04-30T11:53:13.514Z,99480
2018-04-30T11:58:16.623Z,99494
2018-04-30T12:03:20.114Z,99491
2018-04-30T12:08:23.190Z,99494
2018-04-30T12:13:26.284Z,99498
2018-04-30T12:18:30.162Z,99509
2018-04-30T12:23:33.875Z,99527
2018-04-30T12:28:38.326Z,99527
2018-04-30T12:33:42.174Z,99533
2018-04-30T12:38:45.279Z,99535
2018-04-30T12:43:48.420Z,99545
2018-04-30T12:48:52.793Z,99542
2018-04-30T12:53:55.879Z,99532
2018-04-30T12:59:00.946Z,99547
2018-04-30T13:04:04.433Z,99544
2018-04-30T13:09:07.633Z,99531
2018-04-30T13:14:11.424Z,99535
2018-04-30T13:19:15.879Z,99549
2018-04-30T13:24:20.495Z,99559
2018-04-30T13:29:24.351Z,99556
2018-04-30T13:34:28.957Z,99555
2018-04-30T13:39:32.446Z,99589
2018-04-30T13:44:35.539Z,99604
2018-04-30T13:49:38.627Z,99609
2018-04-30T13:54:41.723Z,99617
2018-04-30T13:59:46.170Z,99619
2018-04-30T14:04:51.345Z,99632
2018-04-30T14:09:55.198Z,99625
2018-04-30T14:14:59.733Z,99625
2018-04-30T14:20:02.820Z,99619
2018-04-30T14:25:07.262Z,99602
2018-04-30T14:30:10.353Z,99605
2018-04-30T14:35:13.438Z,99596
2018-04-30T14:40:17.665Z,99606
2018-04-30T14:45:21.515Z,99605
2018-04-30T14:50:24.606Z,99613
2018-04-30T14:55:28.574Z,99618
2018-04-30T15:00:32.059Z,99635
2018-04-30T15:05:35.163Z,99641
2018-04-30T15:10:39.597Z,99646
2018-04-30T15:15:44.208Z,99642
2018-04-30T15:20:47.299Z,99640
2018-04-30T15:25:51.736Z,99628
2018-04-30T15:30:54.830Z,99622
2018-04-30T15:35:59.284Z,99623
2018-04-30T15:41:03.108Z,99620
2018-04-30T15:46:06.170Z,99613
2018-04-30T15:51:09.255Z,99602
2018-04-30T15:56:12.742Z,99604
2018-04-30T16:01:16.983Z,99594
2018-04-30T16:06:20.830Z,99604
2018-04-30T16:11:25.054Z,99594
2018-04-30T16:16:28.146Z,99603
2018-04-30T16:21:32.593Z,99594
2018-04-30T16:26:35.681Z,99592
2018-04-30T16:31:38.768Z,99585
2018-04-30T16:36:41.850Z,99595
2018-04-30T16:41:46.286Z,99593
2018-04-30T16:46:49.377Z,99587
2018-04-30T16:51:54.173Z,99586
2018-04-30T16:56:58.483Z,99592
2018-04-30T17:02:01.580Z,99586
2018-04-30T17:07:06.003Z,99581
2018-04-30T17:12:09.851Z,99581
2018-04-30T17:17:14.598Z,99573
2018-04-30T17:22:17.696Z,99573
2018-04-30T17:27:22.126Z,99584
2018-04-30T17:32:25.961Z,99598
2018-04-30T17:37:29.811Z,99582
2018-04-30T17:42:32.903Z,99598
2018-04-30T17:47:37.350Z,99595
2018-04-30T17:52:41.198Z,99611
2018-04-30T17:57:44.280Z,99607
2018-04-30T18:02:48.982Z,99597
2018-04-30T18:07:52.826Z,99589
2018-04-30T18:12:56.682Z,99593
2018-04-30T18:18:00.165Z,99594
2018-04-30T18:23:04.006Z,99595
2018-04-30T18:28:07.097Z,99604
2018-04-30T18:33:11.343Z,99624
2018-04-30T18:38:14.387Z,99596
2018-04-30T18:43:17.577Z,99596
2018-04-30T18:48:22.130Z,99581
2018-04-30T18:53:25.269Z,99604
2018-04-30T18:58:29.724Z,99602
2018-04-30T19:03:34.095Z,99598
2018-04-30T19:08:37.256Z,99608
2018-04-30T19:13:40.800Z,99625
2018-04-30T19:18:44.738Z,99633
2018-04-30T19:23:48.590Z,99651
2018-04-30T19:28:51.720Z,99652
2018-04-30T19:33:55.889Z,99654
2018-04-30T19:39:00.345Z,99649
2018-04-30T19:44:03.822Z,99647
2018-04-30T19:49:06.934Z,99648
2018-04-30T19:54:10.015Z,99656
2018-04-30T19:59:13.861Z,99657
2018-04-30T20:04:17.718Z,99662
2018-04-30T20:09:22.137Z,99663
2018-04-30T20:14:26.747Z,99684
2018-04-30T20:19:30.608Z,99675
2018-04-30T20:24:33.689Z,99687
2018-04-30T20:29:36.807Z,99687
2018-04-30T20:34:39.919Z,99677
2018-04-30T20:39:44.522Z,99694
2018-04-30T20:44:47.618Z,99705
2018-04-30T20:49:50.704Z,99710
2018-04-30T20:54:54.545Z,99705
2018-04-30T20:59:57.667Z,99726
2018-04-30T21:05:00.765Z,99722
2018-04-30T21:10:03.856Z,99721
2018-04-30T21:15:08.467Z,99722
2018-04-30T21:20:11.537Z,99723
2018-04-30T21:25:14.629Z,99731
2018-04-30T21:30:17.698Z,99744
2018-04-30T21:35:22.306Z,99751
2018-04-30T21:40:26.906Z,99765
2018-04-30T21:45:31.486Z,99770
2018-04-30T21:50:34.955Z,99776
2018-04-30T21:55:38.046Z,99779
2018-04-30T22:00:42.652Z,99789
2018-04-30T22:05:46.017Z,99799
2018-04-30T22:10:51.242Z,99813
2018-04-30T22:15:55.828Z,99818
2018-04-30T22:20:59.678Z,99822
2018-04-30T22:26:02.755Z,99840
2018-04-30T22:31:06.210Z,99842
2018-04-30T22:36:10.725Z,99851
2018-04-30T22:41:14.571Z,99859
2018-04-30T22:46:19.007Z,99867
2018-04-30T22:51:22.491Z,99873
2018-04-30T22:56:26.693Z,99872
2018-04-30T23:01:30.684Z,99875
2018-04-30T23:06:34.526Z,99876
2018-04-30T23:11:38.930Z,99872
2018-04-30T23:16:42.951Z,99876
2018-04-30T23:21:46.027Z,99880
2018-04-30T23:26:49.099Z,99881
2018-04-30T23:31:52.181Z,99887
2018-04-30T23:36:57.747Z,99902
2018-04-30T23:42:02.363Z,99912
2018-04-30T23:47:06.208Z,99907
2018-04-30T23:52:10.789Z,99919
2018-04-30T23:57:13.859Z,99919
